Friday, July 25, 2014, 9:39 AM EDT

KMUI, Muir Army Air Field / Indiantown

Location: Jonestown, PA, United States Lat: 40.433
Local Time: 9:39 AM EDT (13:39 GMT) Lon: -76.567
Time Zone: US/Eastern Elev: 488 ft

Show me the last for .
Show Decoded

2014-07-25 08:58 METAR KMUI 251258Z AUTO VRB03KT 10SM CLR 20/10 A3008 RMK AO2 SLP187 T01970104 $
                 =
2014-07-25 07:58 METAR KMUI 251158Z AUTO 00000KT 10SM CLR 16/12 A3007 RMK AO2 SLP184 T01640122
                 10164 20101 52017 $ =
2014-07-25 06:58 METAR KMUI 251058Z AUTO 29001KT 10SM CLR 12/12 A3006 RMK AO2 SLP181 T01200117 $
                 =
2014-07-25 05:58 METAR KMUI 250958Z AUTO 35002KT 10SM CLR 10/10 A3004 RMK AO2 SLP174 T01030102 $
                 =
2014-07-25 04:58 METAR KMUI 250858Z AUTO VRB02KT 10SM CLR 14/10 A3002 RMK AO2 SLP166 T01380101
                 53002 $ =
2014-07-25 03:58 METAR KMUI 250758Z AUTO 32002KT 10SM CLR 11/11 A3001 RMK AO2 SLP164 T01140110 $
                 =
2014-07-25 02:58 METAR KMUI 250658Z AUTO 35002KT 10SM CLR 12/12 A3001 RMK AO2 SLP163 T01200118 $
                 =
2014-07-25 01:58 METAR KMUI 250558Z AUTO 11004KT 10SM CLR 16/11 A3001 RMK AO2 SLP163 T01560106
                 10220 20156 52010 $ =
2014-07-25 00:58 METAR KMUI 250458Z AUTO 35004KT 10SM CLR 16/12 A3000 RMK AO2 SLP159 T01600115
                 402680160 $ =
2014-07-24 23:58 METAR KMUI 250358Z AUTO 35005KT 10SM CLR 17/12 A2999 RMK AO2 SLP156 T01690116 $
                 =
2014-07-24 22:58 METAR KMUI 250258Z AUTO 36004KT 10SM CLR 18/12 A2998 RMK AO2 SLP153 T01750118
                 53010 $ =
2014-07-24 21:58 METAR KMUI 250158Z AUTO 36004KT 10SM CLR 18/13 A2996 RMK AO2 SLP146 T01800126 $
                 =
2014-07-24 20:58 METAR KMUI 250058Z AUTO 34004KT 10SM CLR 20/13 A2994 RMK AO2 SLP139 T01950130 $
                 =
2014-07-24 19:58 METAR KMUI 242358Z AUTO 36004KT 10SM CLR 22/12 A2994 RMK AO2 SLP139 T02230121
                 10268 20223 53005 $ =
2014-07-24 17:58 METAR KMUI 242158Z AUTO 01005KT 10SM CLR 25/12 A2991 RMK AO2 SLP128 T02500121 $
                 =
2014-07-24 16:58 METAR KMUI 242058Z AUTO 34009KT 10SM FEW060 25/12 A2992 RMK AO2 SLP132 T02530118
                 55002 $ =
2014-07-24 15:58 METAR KMUI 241958Z AUTO 01008KT 10SM BKN060 25/12 A2993 RMK AO2 SLP135 T02540122
                 $ =
2014-07-24 14:58 METAR KMUI 241858Z AUTO 01007KT 340V040 10SM FEW050 26/13 A2991 RMK AO2 SLP128
                 T02620129 $ =
2014-07-24 13:58 METAR KMUI 241758Z AUTO VRB05KT 10SM FEW050 26/13 A2992 RMK AO2 SLP131 T02590130
                 10259 20202 58012 $ =
2014-07-24 12:58 METAR KMUI 241658Z AUTO 04006KT 10SM SCT047 25/13 A2994 RMK AO2 SLP138 T02510130
                 $ =
2014-07-24 11:58 METAR KMUI 241558Z AUTO 36005KT 10SM FEW042 SCT050 23/14 A2995 RMK AO2 SLP142
                 T02340139 $ =
2014-07-24 09:58 METAR KMUI 241358Z AUTO 35007KT 10SM SCT029 22/15 A2994 RMK AO2 SLP138 T02210153
                 $ =
2014-07-24 09:50 METAR KMUI 241350Z AUTO 32006KT 10SM SCT029 22/15 A2993 RMK AO2 $ =

Support USWX by starting your Amazon purchase here.